PORT of YANGJIANG

País: China País: China [CN]
Latitude / Longitude: 21.66159° / 111.80535° Mostrar no mapa
Hora local:  [UTC +8]
UN/LOCODE: CNYJI
Navios actualmente no Porto: 7
Chegadas previstas: 10

Chegadas e Partidas recentes


Nome do navio
Chegada (UTC)
Chegada (LT)
Partida (UTC)
Partida (LT)
Vessel Type: Rebocador, piloto etc  NAN HAI 2005 2014-08-24 21:54:00 2014-08-25 05:54:00 2014-08-27 09:13:00 2014-08-27 17:13:00
Vessel Type: Navios de carga  128 2014-08-24 21:12:00 2014-08-25 05:12:00 2014-08-27 08:41:00 2014-08-27 16:41:00
Vessel Type: Pesca  YUE YANG JIANG0099 2014-08-25 06:22:00 2014-08-25 14:22:00 2014-08-27 08:10:00 2014-08-27 16:10:00
Vessel Type: Pesca  YUE YANG XI YU 32788 2014-08-24 16:16:00 2014-08-25 00:16:00 2014-08-27 08:08:00 2014-08-27 16:08:00
Vessel Type: Pesca  HHH 2014-08-21 04:13:00 2014-08-21 12:13:00 2014-08-27 08:05:00 2014-08-27 16:05:00
Vessel Type: Pesca  YANGJIANGYUYUN80368 2014-08-25 22:26:00 2014-08-26 06:26:00 2014-08-27 07:14:00 2014-08-27 15:14:00
Vessel Type: Rebocador, piloto etc  ZHAN GANG TUO 11 2014-08-27 04:40:00 2014-08-27 12:40:00
Vessel Type: Pesca  YUEYANGJIANG41125 2014-08-25 22:37:00 2014-08-26 06:37:00 2014-08-27 03:48:00 2014-08-27 11:48:00
Vessel Type: Pesca  YUEYANGJIANG41169 2014-08-27 01:24:00 2014-08-27 09:24:00
Vessel Type: Navios de carga  SHENG SONG 8 HAO 2014-08-27 00:25:00 2014-08-27 08:25:00

Chegadas previstas


Nome do navio
Scheduled Arrival (UTC)
Previsão de chegada (hora local)
Chegada estimada (ETA) (UTC)
Chegada estimada
Vessel Type: Navios de carga  FU HANG 66 2014-08-25 12:00:00 2014-08-25 20:00:00
AN SHUN JIE 2014-08-25 22:00:00 2014-08-26 06:00:00
Vessel Type: Navios de carga  DING YAO JING SHEN 2014-08-27 01:00:00 2014-08-27 09:00:00
Vessel Type: Navios de carga  AN YUE SHAN 2014-08-27 10:00:00 2014-08-27 18:00:00 2014-08-27 05:44:00 2014-08-27 13:44:00
Vessel Type: Navios de carga  KAI TONG 9 2014-08-27 19:00:00 2014-08-28 03:00:00 2014-08-30 19:40:00 2014-08-31 03:40:00
Vessel Type: Navios de carga  BAROCK 2014-08-28 23:00:00 2014-08-29 07:00:00
Vessel Type: Navios de carga  SONG SHAN HAI 2014-08-29 08:00:00 2014-08-29 16:00:00 2014-08-28 14:45:00 2014-08-28 22:45:00
Vessel Type: Navios de carga  TUO ZHAN 7 2014-08-29 15:00:00 2014-08-29 23:00:00 2014-08-29 02:14:00 2014-08-29 10:14:00
Vessel Type: Navios de carga  AN LONG SHAN 2014-08-29 19:00:00 2014-08-30 03:00:00 2014-08-29 05:49:00 2014-08-29 13:49:00
Vessel Type: Navios de carga  JIANG HAI SHUN 2014-08-30 02:00:00 2014-08-30 10:00:00

Wind Forecast


    
Hora (UTC)
Velocidade
Direction
Temperature
2014-08-27 09:00:00 16 knots 82° 29°C
2014-08-27 12:00:00 16 knots 77° 28°C
2014-08-27 15:00:00 16 knots 89° 28°C
2014-08-27 18:00:00 12 knots 111° 28°C
2014-08-27 21:00:00 12 knots 109° 28°C
2014-08-28 00:00:00 13 knots 116° 28°C
2014-08-28 03:00:00 13 knots 128° 29°C
2014-08-28 06:00:00 9 knots 134° 28°C
2014-08-28 09:00:00 6 knots 126° 29°C
2014-08-28 12:00:00 7 knots 88° 29°C
2014-08-28 15:00:00 9 knots 90° 28°C
2014-08-28 18:00:00 8 knots 84° 28°C
2014-08-28 21:00:00 7 knots 70° 28°C
2014-08-29 00:00:00 7 knots 73° 28°C
2014-08-29 03:00:00 8 knots 101° 30°C
2014-08-29 06:00:00 10 knots 130° 30°C
2014-08-29 09:00:00 9 knots 141° 30°C

NO_PHOTO

No Photos for this port. Be the first to upload one!